Aeroporto :
LOGIN :

Iscrizione | Disclaimer

   EN    FR    IT 

 










Sommario :    VFR   VFR Marginale   IFR   IFR Intensivo   IFR Molto Intensivo
Visibilità : 
Base nubi : 
>= 8 km
>= 3000ft
5 / 8 km
1000 / 3000 ft
1500m / 5 km
500 / 1000 ft
800 / 1500m
200 / 500 ft
< 800m
< 200 ft
Simboli :   Temporali  Nebbia  Neve Forte  Precipitazioni Forti  Vento > 20 kt
SIGMETs :   Varie  Temporali  Ghiacco  Turbolenza  Onda orograficha  Ceneri Vulcaniche







- Altitudine del aeroporto : 60 ft
- Codice IATA : MJT


LGMT - Odysseas Elytis

ULTIMO METAR :
  • 230450Z 31008KT 260V030 CAVOK 26/17 Q1011

METARs OBSOLETI :
  • 230420Z 29007KT 240V030 CAVOK 25/16 Q1011
  • 230350Z 30005KT 240V360 CAVOK 25/16 Q1011
  • 230320Z 29006KT 220V360 CAVOK 24/16 Q1012
  • 230250Z 30006KT 240V360 CAVOK 24/16 Q1012
  • 230220Z 31007KT 290V360 CAVOK 24/16 Q1011

TAF TAF LGMT
Valido dal 23 a 03 ore il 23 a 12 ore UTC


230200Z 2303/2312 02015KT 9999 FEW020
TEMPO 2309/2311 35015G25KT
Nessun NOTAM noto per questo aeroporto.



MetMap, La meteo Aeronautica in un colpo d'occhio ! - Copyright ORBIFLY Dicembre 2007 - Disclaimer

ORBIFLY MET'MAP TEAM :

Programmazione e sviluppo : Alexandra Zaïnal
Concezione e sviluppo : Baudouin d'Aumeries
Co-Programmazione e sviluppo : Marc-Olivier Méhu
Supporto tecnico e logistico : Manuel Goepfert
Aiuto per la traduzione : Arnaldo La Scala

Contatto : metmap@orbifly.com




FONTI E CREDITI :

   NOAA